Time;durP1;ratioP1;P1;durP2;ratioP2;P2;SDS_P1;SDS_P2;PMS_P1;PMS_P2;Temp;Humidity;BMP_temperature;BMP_pressure;BME280_temperature;BME280_humidity;BME280_pressure;Samples;Min_cycle;Max_cycle;Signal;HPM_P1;HPM_P2
2022/08/06 00:01:34;;;;;;;62.53;50.03;;;24.50;52.00;;;;;;4941698;28;92509;-46
2022/08/06 00:04:00;;;;;;;60.50;49.90;;;24.50;52.00;;;;;;4949098;28;91986;-52
2022/08/06 00:06:26;;;;;;;60.60;49.78;;;24.50;52.00;;;;;;4938429;28;92167;-55
2022/08/06 00:08:52;;;;;;;61.42;49.95;;;24.50;52.10;;;;;;4937644;28;93977;-54
2022/08/06 00:11:18;;;;;;;59.42;49.47;;;24.40;52.10;;;;;;4939162;28;90086;-50
2022/08/06 00:13:43;;;;;;;60.67;50.03;;;24.40;52.20;;;;;;4938976;28;89867;-51
2022/08/06 00:16:09;;;;;;;60.58;49.97;;;24.40;52.20;;;;;;4932440;28;91077;-46
2022/08/06 00:18:35;;;;;;;60.85;49.65;;;24.40;52.10;;;;;;4936587;28;89862;-51
2022/08/06 00:21:00;;;;;;;60.45;49.83;;;24.40;52.20;;;;;;4931450;28;92400;-53
2022/08/06 00:23:26;;;;;;;62.20;49.88;;;24.40;52.20;;;;;;4936927;28;91913;-49
2022/08/06 00:25:53;;;;;;;61.50;49.72;;;24.40;52.30;;;;;;4945105;28;93515;-50
2022/08/06 00:28:20;;;;;;;61.10;49.78;;;24.40;52.40;;;;;;4947784;28;90640;-55
2022/08/06 00:30:46;;;;;;;60.33;49.95;;;24.40;52.40;;;;;;4941729;28;95544;-53
2022/08/06 00:33:11;;;;;;;60.67;49.83;;;24.40;52.50;;;;;;4949485;28;90552;-50
2022/08/06 00:35:37;;;;;;;60.28;49.60;;;24.30;52.50;;;;;;4934680;28;96676;-51
2022/08/06 00:38:03;;;;;;;59.83;49.80;;;24.30;52.50;;;;;;4941561;28;89977;-49
2022/08/06 00:40:30;;;;;;;60.35;49.65;;;24.30;52.50;;;;;;4926844;28;92785;-47
2022/08/06 00:43:00;;;;;;;60.15;49.63;;;24.20;52.50;;;;;;4931783;28;89610;-46
2022/08/06 00:45:26;;;;;;;61.53;49.87;;;24.20;52.60;;;;;;4946009;28;90116;-54
2022/08/06 00:47:54;;;;;;;60.67;49.78;;;24.30;52.70;;;;;;4942390;28;90276;-52
2022/08/06 00:50:20;;;;;;;60.75;49.55;;;24.20;52.60;;;;;;4933639;28;91279;-50
2022/08/06 00:52:46;;;;;;;59.65;49.47;;;24.20;52.70;;;;;;4935828;28;90068;-50
2022/08/06 00:55:12;;;;;;;60.72;49.53;;;24.20;52.70;;;;;;4937667;28;90183;-52
2022/08/06 00:57:38;;;;;;;60.08;49.70;;;24.20;52.80;;;;;;4936975;28;90172;-48
2022/08/06 01:00:05;;;;;;;61.13;49.80;;;24.20;52.90;;;;;;4936645;28;93044;-54
2022/08/06 01:02:31;;;;;;;60.40;49.65;;;24.20;52.90;;;;;;4941112;28;89945;-49
2022/08/06 01:04:57;;;;;;;61.72;49.45;;;24.10;52.80;;;;;;4947416;28;90357;-51
2022/08/06 01:07:22;;;;;;;59.53;49.53;;;24.10;53.10;;;;;;4940680;28;94758;-54
2022/08/06 01:09:49;;;;;;;60.53;49.83;;;24.20;52.90;;;;;;4934334;28;99348;-55
2022/08/06 01:12:15;;;;;;;59.38;49.50;;;24.20;53.00;;;;;;4941355;28;91216;-47
2022/08/06 01:14:41;;;;;;;59.63;49.55;;;24.10;53.10;;;;;;4940246;28;92267;-52
2022/08/06 01:18:00;;;;;;;60.63;49.45;;;24.10;53.10;;;;;;4927183;28;91090;-51
2022/08/06 01:20:43;;;;;;;59.95;49.28;;;24.10;53.00;;;;;;4939683;28;90716;-47
2022/08/06 01:24:03;;;;;;;59.85;49.55;;;24.10;53.10;;;;;;4943483;28;90441;-50
2022/08/06 01:26:37;;;;;;;60.40;49.45;;;24.10;53.10;;;;;;4946708;28;90619;-51
2022/08/06 01:29:15;;;;;;;59.28;49.53;;;24.00;53.20;;;;;;4954414;28;90755;-47
2022/08/06 01:32:01;;;;;;;59.72;49.55;;;24.00;53.30;;;;;;4946524;28;90314;-51
2022/08/06 01:34:35;;;;;;;59.28;49.30;;;24.00;53.30;;;;;;4938985;28;93458;-48
2022/08/06 01:37:31;;;;;;;61.20;49.53;;;24.00;53.30;;;;;;4937718;28;89971;-52
2022/08/06 01:40:02;;;;;;;59.15;49.33;;;24.00;53.30;;;;;;4928122;28;92104;-52
2022/08/06 01:42:31;;;;;;;58.80;49.25;;;24.00;53.30;;;;;;4924328;28;91284;-54
2022/08/06 01:45:01;;;;;;;61.33;49.55;;;24.00;53.30;;;;;;4931362;28;89889;-47
2022/08/06 01:47:30;;;;;;;60.17;49.63;;;24.00;53.40;;;;;;4942789;28;90158;-52
2022/08/06 01:49:59;;;;;;;60.05;49.53;;;23.90;53.30;;;;;;4933578;28;92651;-52
2022/08/06 01:52:26;;;;;;;60.00;49.35;;;24.00;53.30;;;;;;4940415;28;89909;-49
2022/08/06 01:54:54;;;;;;;59.92;49.47;;;24.00;53.40;;;;;;4935767;28;92528;-45
2022/08/06 01:57:22;;;;;;;59.35;49.33;;;24.00;53.40;;;;;;4941466;28;95382;-49
2022/08/06 01:59:51;;;;;;;58.85;49.30;;;23.90;53.30;;;;;;4924728;28;96538;-54
2022/08/06 02:02:21;;;;;;;58.83;49.35;;;23.90;53.40;;;;;;4939030;28;93680;-48
2022/08/06 02:04:52;;;;;;;59.85;49.35;;;23.90;53.40;;;;;;4945390;28;90587;-51
2022/08/06 02:07:22;;;;;;;59.67;49.53;;;23.90;53.40;;;;;;4941767;28;91827;-55
2022/08/06 02:09:50;;;;;;;59.38;49.47;;;23.90;53.50;;;;;;4938728;28;92708;-53
2022/08/06 02:12:23;;;;;;;58.67;49.25;;;23.90;53.40;;;;;;4937783;28;90062;-51
2022/08/06 02:15:07;;;;;;;60.22;49.42;;;23.90;53.50;;;;;;4930430;28;99350;-52
2022/08/06 02:17:41;;;;;;;59.40;49.53;;;23.90;53.50;;;;;;4931745;28;95797;-51
2022/08/06 02:20:10;;;;;;;59.00;49.30;;;23.90;53.50;;;;;;4940873;28;92331;-45
2022/08/06 02:22:38;;;;;;;58.80;49.28;;;23.90;53.50;;;;;;4943245;28;92489;-55
2022/08/06 02:25:08;;;;;;;59.03;49.33;;;23.90;53.50;;;;;;4952095;28;89839;-51
2022/08/06 02:27:36;;;;;;;58.83;49.25;;;23.80;53.50;;;;;;4930635;28;95820;-46
2022/08/06 02:30:03;;;;;;;59.08;49.25;;;23.90;53.50;;;;;;4929492;28;91608;-49
2022/08/06 02:32:29;;;;;;;58.30;49.00;;;23.80;53.50;;;;;;4930620;28;93298;-51
2022/08/06 02:34:55;;;;;;;59.42;49.35;;;23.80;53.60;;;;;;4946313;28;90570;-48
2022/08/06 02:37:26;;;;;;;58.55;49.15;;;23.80;53.60;;;;;;4938932;28;90104;-49
2022/08/06 02:39:59;;;;;;;59.05;49.33;;;23.80;53.70;;;;;;4934299;28;90782;-55
2022/08/06 02:42:34;;;;;;;59.00;49.25;;;23.80;53.70;;;;;;4936529;28;92790;-55
2022/08/06 02:45:05;;;;;;;58.40;49.15;;;23.70;53.70;;;;;;4937036;28;89649;-52
2022/08/06 02:47:44;;;;;;;60.17;49.33;;;23.70;53.70;;;;;;4932111;28;93099;-49
2022/08/06 02:50:14;;;;;;;59.13;49.13;;;23.70;53.80;;;;;;4943338;28;90011;-52
2022/08/06 02:52:47;;;;;;;58.72;49.28;;;23.70;53.80;;;;;;4938539;28;95626;-51
2022/08/06 02:55:17;;;;;;;58.85;49.15;;;23.70;53.90;;;;;;4946848;28;90047;-49
2022/08/06 02:57:52;;;;;;;59.05;49.45;;;23.70;53.90;;;;;;4941676;28;91067;-50
2022/08/06 03:00:19;;;;;;;58.55;49.28;;;23.70;53.80;;;;;;4936323;28;92025;-50
2022/08/06 03:02:47;;;;;;;58.20;49.03;;;23.70;53.70;;;;;;4939191;28;92933;-52
2022/08/06 03:05:18;;;;;;;58.30;49.13;;;23.70;53.90;;;;;;4934121;28;92290;-49
2022/08/06 03:07:46;;;;;;;58.58;49.25;;;23.70;53.80;;;;;;4951259;28;90928;-48
2022/08/06 03:10:13;;;;;;;59.55;49.30;;;23.60;53.80;;;;;;4938936;28;93077;-49
2022/08/06 03:12:40;;;;;;;58.50;49.22;;;23.60;53.80;;;;;;4941567;28;89433;-45
2022/08/06 03:15:07;;;;;;;58.33;49.28;;;23.60;53.80;;;;;;4945332;28;89689;-46
2022/08/06 03:17:35;;;;;;;58.83;49.38;;;23.60;53.90;;;;;;4939533;28;95001;-53
2022/08/06 03:20:03;;;;;;;59.65;49.15;;;23.60;53.90;;;;;;4946489;28;94331;-46
2022/08/06 03:22:32;;;;;;;58.55;49.22;;;23.60;53.90;;;;;;4952464;28;91312;-53
2022/08/06 03:25:00;;;;;;;58.58;49.35;;;23.60;54.00;;;;;;4939969;28;90359;-54
2022/08/06 03:27:26;;;;;;;59.00;49.33;;;23.60;54.00;;;;;;4951406;28;90217;-54
2022/08/06 03:29:53;;;;;;;58.13;49.08;;;23.60;54.00;;;;;;4940265;28;89870;-51
2022/08/06 03:32:19;;;;;;;59.08;49.25;;;23.60;54.10;;;;;;4933866;28;90525;-48
2022/08/06 03:34:46;;;;;;;58.65;49.05;;;23.50;54.00;;;;;;4932680;28;90590;-48
2022/08/06 03:37:13;;;;;;;58.35;49.28;;;23.50;54.10;;;;;;4947174;28;90648;-53
2022/08/06 03:39:41;;;;;;;58.63;49.38;;;23.50;54.10;;;;;;4942877;28;90503;-48
2022/08/06 03:42:07;;;;;;;58.63;49.28;;;23.50;54.10;;;;;;4942362;28;89565;-50
2022/08/06 03:44:33;;;;;;;58.60;49.17;;;23.50;54.10;;;;;;4943816;28;91524;-52
2022/08/06 03:47:05;;;;;;;59.15;49.22;;;23.50;54.20;;;;;;4930736;28;91004;-52
2022/08/06 03:49:37;;;;;;;58.83;49.10;;;23.50;54.20;;;;;;4940039;28;91405;-50
2022/08/06 03:52:05;;;;;;;58.47;49.30;;;23.50;54.10;;;;;;4938452;28;91001;-51
2022/08/06 03:54:38;;;;;;;59.10;49.47;;;23.50;54.10;;;;;;4938034;28;89993;-50
2022/08/06 03:57:09;;;;;;;59.03;49.30;;;23.50;54.10;;;;;;4948193;28;90269;-51
2022/08/06 03:59:37;;;;;;;;;;;23.50;54.10;;;;;;4938679;28;92969;-50
2022/08/06 04:02:03;;;;;;;57.90;49.13;;;23.50;54.10;;;;;;4940429;28;93380;-54
2022/08/06 04:04:31;;;;;;;58.63;49.05;;;23.40;54.20;;;;;;4945801;28;89055;-49
2022/08/06 04:06:58;;;;;;;58.47;49.03;;;23.40;54.30;;;;;;4942419;28;92040;-50
2022/08/06 04:09:25;;;;;;;57.88;48.97;;;23.40;54.30;;;;;;4942070;28;90452;-53
2022/08/06 04:11:53;;;;;;;58.95;49.10;;;23.30;54.20;;;;;;4935319;28;93736;-45
2022/08/06 04:14:19;;;;;;;57.95;49.03;;;23.40;54.30;;;;;;4951541;28;90148;-46
2022/08/06 04:16:45;;;;;;;57.95;49.13;;;23.30;54.30;;;;;;4951791;28;93761;-51
2022/08/06 04:19:13;;;;;;;57.85;48.83;;;23.30;54.40;;;;;;4945194;28;90455;-45
2022/08/06 04:21:38;;;;;;;59.60;49.15;;;23.30;54.40;;;;;;4946804;28;92225;-50
2022/08/06 04:24:05;;;;;;;57.97;49.05;;;23.30;54.40;;;;;;4950009;28;90376;-52
2022/08/06 04:26:32;;;;;;;58.38;49.03;;;23.30;55.00;;;;;;4939765;28;90558;-47
2022/08/06 04:28:59;;;;;;;58.47;49.15;;;23.30;54.40;;;;;;4938533;28;90627;-53
2022/08/06 04:31:27;;;;;;;58.35;49.25;;;23.30;54.40;;;;;;4938023;28;93263;-53
2022/08/06 04:33:56;;;;;;;59.08;49.15;;;23.30;54.40;;;;;;4949234;28;89606;-52
2022/08/06 04:36:22;;;;;;;58.67;49.25;;;23.30;54.40;;;;;;4949933;28;91091;-54
2022/08/06 04:38:48;;;;;;;58.63;49.03;;;23.30;54.40;;;;;;4942304;28;91071;-49
2022/08/06 04:41:14;;;;;;;58.00;48.95;;;23.30;54.30;;;;;;4949658;28;89888;-50
2022/08/06 04:43:40;;;;;;;58.03;48.92;;;23.30;54.30;;;;;;4947467;28;96091;-52
2022/08/06 04:46:07;;;;;;;58.92;49.15;;;23.30;54.40;;;;;;4936979;28;95339;-51
2022/08/06 04:48:34;;;;;;;58.10;48.95;;;23.30;54.20;;;;;;4937997;28;92109;-49
2022/08/06 04:51:04;;;;;;;57.78;48.90;;;23.30;54.30;;;;;;4937819;28;91989;-49
2022/08/06 04:53:37;;;;;;;58.45;49.05;;;23.30;54.30;;;;;;4944875;28;89017;-48
2022/08/06 04:56:03;;;;;;;58.25;49.20;;;23.30;54.40;;;;;;4945193;28;90981;-53
2022/08/06 04:58:29;;;;;;;57.95;48.95;;;23.30;54.40;;;;;;4928892;28;91772;-51
2022/08/06 05:00:54;;;;;;;58.15;49.08;;;23.30;54.40;;;;;;4948855;28;92083;-54
2022/08/06 05:03:20;;;;;;;58.13;49.03;;;23.30;54.40;;;;;;4942424;28;89633;-57
2022/08/06 05:06:09;;;;;;;58.42;49.15;;;23.30;54.40;;;;;;4940678;28;90751;-54
2022/08/06 05:08:38;;;;;;;58.20;48.95;;;23.30;54.40;;;;;;4940841;28;90017;-48
2022/08/06 05:11:24;;;;;;;57.67;49.08;;;23.30;54.40;;;;;;4937121;28;90250;-50
2022/08/06 05:13:54;;;;;;;58.85;48.95;;;23.30;54.40;;;;;;4952504;28;90088;-49
2022/08/06 05:16:21;;;;;;;59.00;49.27;;;23.30;54.40;;;;;;4942477;28;90632;-53
2022/08/06 05:18:53;;;;;;;58.83;49.15;;;23.30;54.40;;;;;;4938336;28;90184;-49
2022/08/06 05:21:23;;;;;;;58.55;49.17;;;23.30;54.40;;;;;;4937077;28;91976;-52
2022/08/06 05:23:53;;;;;;;58.53;49.15;;;23.30;54.40;;;;;;4943654;28;91142;-47
2022/08/06 05:26:19;;;;;;;58.50;49.00;;;23.30;54.40;;;;;;4944531;28;91112;-54
2022/08/06 05:28:44;;;;;;;59.08;49.17;;;23.30;54.40;;;;;;4943659;28;91442;-54
2022/08/06 05:31:10;;;;;;;58.20;49.05;;;23.30;54.30;;;;;;4930986;28;89474;-46
2022/08/06 05:33:37;;;;;;;59.45;49.15;;;23.40;54.30;;;;;;4942025;28;90040;-50
2022/08/06 05:36:11;;;;;;;57.63;48.90;;;23.30;54.30;;;;;;4947757;28;90239;-52
2022/08/06 05:38:39;;;;;;;58.08;49.03;;;23.30;54.30;;;;;;4935006;28;91330;-52
2022/08/06 05:41:11;;;;;;;57.78;48.95;;;23.40;54.30;;;;;;4941875;28;90560;-52
2022/08/06 05:43:38;;;;;;;58.03;49.05;;;23.30;54.20;;;;;;4937250;28;89623;-49
2022/08/06 05:46:13;;;;;;;58.72;49.22;;;23.30;54.20;;;;;;4945606;28;90183;-46
2022/08/06 05:48:45;;;;;;;59.97;48.92;;;23.30;54.30;;;;;;4939767;28;93147;-50
2022/08/06 05:51:33;;;;;;;57.90;48.95;;;23.30;54.30;;;;;;4935000;28;91339;-52
2022/08/06 05:54:05;;;;;;;59.85;49.25;;;23.30;54.10;;;;;;4944614;28;91629;-52
2022/08/06 05:56:38;;;;;;;58.20;49.22;;;23.30;54.60;;;;;;4933332;28;96111;-51
2022/08/06 05:59:10;;;;;;;60.05;49.05;;;23.30;53.90;;;;;;4932902;28;95281;-46
2022/08/06 06:01:36;;;;;;;59.22;49.05;;;23.30;54.00;;;;;;4936440;28;94985;-52
2022/08/06 06:04:03;;;;;;;58.38;49.13;;;23.30;54.00;;;;;;4934298;28;95889;-50
2022/08/06 06:06:30;;;;;;;58.05;49.13;;;23.30;53.80;;;;;;4929006;28;89666;-48
2022/08/06 06:08:56;;;;;;;58.22;49.05;;;23.40;53.90;;;;;;4948529;28;90196;-55
2022/08/06 06:11:23;;;;;;;58.20;49.15;;;23.40;53.90;;;;;;4948592;28;94787;-46
2022/08/06 06:13:50;;;;;;;58.83;49.38;;;23.40;53.70;;;;;;4939678;28;90080;-49
2022/08/06 06:16:24;;;;;;;58.75;49.30;;;23.40;53.70;;;;;;4926733;28;94374;-51
2022/08/06 06:19:15;;;;;;;60.63;49.50;;;23.50;53.60;;;;;;4936406;28;92861;-48
2022/08/06 06:21:56;;;;;;;59.83;49.30;;;23.40;53.50;;;;;;4931169;28;94614;-50
2022/08/06 06:24:31;;;;;;;59.15;49.33;;;23.50;54.10;;;;;;4941588;28;94112;-45
2022/08/06 06:27:16;;;;;;;59.35;49.22;;;23.50;53.50;;;;;;4947640;28;90496;-52
2022/08/06 06:29:53;;;;;;;58.05;48.97;;;23.50;53.40;;;;;;4947446;28;90789;-53
2022/08/06 06:32:50;;;;;;;58.22;49.20;;;23.50;53.30;;;;;;4938862;28;89521;-46
2022/08/06 06:35:36;;;;;;;60.00;49.42;;;23.60;53.30;;;;;;4938111;28;89117;-53
2022/08/06 06:38:07;;;;;;;59.00;49.38;;;23.60;53.20;;;;;;4932062;28;94263;-54
2022/08/06 06:40:58;;;;;;;63.33;49.25;;;23.50;53.10;;;;;;4933624;28;90587;-51
2022/08/06 06:43:46;;;;;;;58.97;49.42;;;23.60;53.20;;;;;;4937780;28;90962;-51
2022/08/06 06:46:36;;;;;;;61.17;49.45;;;23.60;53.10;;;;;;4934381;28;94659;-48
2022/08/06 06:49:08;;;;;;;59.85;49.35;;;23.60;53.00;;;;;;4939640;28;94563;-52
2022/08/06 06:51:40;;;;;;;59.05;49.33;;;23.70;52.70;;;;;;4938018;28;90286;-50
2022/08/06 06:54:10;;;;;;;58.67;49.35;;;23.70;52.70;;;;;;4931129;28;90254;-54
2022/08/06 06:56:41;;;;;;;59.07;49.47;;;23.70;52.60;;;;;;4944717;28;89894;-54
2022/08/06 06:59:15;;;;;;;58.30;49.15;;;23.80;52.40;;;;;;4933887;28;91402;-51
2022/08/06 07:01:43;;;;;;;58.83;49.42;;;23.80;52.50;;;;;;4927378;28;88905;-50
2022/08/06 07:04:13;;;;;;;59.75;49.45;;;23.80;52.40;;;;;;4943437;28;90457;-56
2022/08/06 07:06:40;;;;;;;60.42;49.42;;;23.70;52.40;;;;;;4940072;28;90457;-50
2022/08/06 07:09:07;;;;;;;59.75;49.15;;;23.80;52.40;;;;;;4934423;28;92120;-50
2022/08/06 07:11:35;;;;;;;58.47;49.25;;;23.80;52.40;;;;;;4933867;28;95083;-45
2022/08/06 07:14:02;;;;;;;59.33;49.45;;;23.80;52.30;;;;;;4932936;28;92879;-51
2022/08/06 07:16:30;;;;;;;59.50;49.22;;;23.80;52.30;;;;;;4953747;28;93284;-54
2022/08/06 07:19:00;;;;;;;59.88;49.42;;;23.90;52.30;;;;;;4926196;28;92470;-51
2022/08/06 07:21:25;;;;;;;59.17;49.38;;;23.80;52.30;;;;;;4932436;28;95188;-49
2022/08/06 07:23:52;;;;;;;59.35;49.53;;;23.90;52.30;;;;;;4940013;28;90221;-51
2022/08/06 07:26:20;;;;;;;59.65;49.67;;;23.90;52.20;;;;;;4947721;28;91152;-51
2022/08/06 07:28:49;;;;;;;61.25;49.65;;;24.00;52.20;;;;;;4939494;28;90079;-47
2022/08/06 07:31:15;;;;;;;59.85;49.35;;;24.00;52.10;;;;;;4940464;28;89936;-52
2022/08/06 07:33:44;;;;;;;59.03;49.28;;;24.00;52.00;;;;;;4940544;28;91797;-49
2022/08/06 07:36:11;;;;;;;58.65;49.45;;;24.00;51.90;;;;;;4953017;28;91577;-47
2022/08/06 07:38:41;;;;;;;58.63;49.35;;;24.00;51.90;;;;;;4938704;28;90917;-51
2022/08/06 07:41:09;;;;;;;59.75;49.67;;;24.10;52.10;;;;;;4933609;28;89794;-48
2022/08/06 07:43:46;;;;;;;60.10;49.90;;;24.10;51.90;;;;;;4937464;28;89811;-52
2022/08/06 07:46:17;;;;;;;59.53;49.35;;;24.10;51.80;;;;;;4949484;28;90372;-48
2022/08/06 07:48:59;;;;;;;60.45;49.60;;;24.10;51.70;;;;;;4939711;28;92571;-55
2022/08/06 07:51:29;;;;;;;59.33;49.63;;;24.20;51.80;;;;;;4943835;28;90916;-51
2022/08/06 07:53:55;;;;;;;60.20;49.55;;;24.20;51.70;;;;;;4941021;28;90439;-55
2022/08/06 07:56:22;;;;;;;60.25;49.58;;;24.20;51.60;;;;;;4944034;28;89885;-48
2022/08/06 07:58:49;;;;;;;59.72;49.53;;;24.20;51.60;;;;;;4942225;28;93826;-51
2022/08/06 08:01:16;;;;;;;59.17;49.63;;;24.20;51.60;;;;;;4938955;28;92035;-53
2022/08/06 08:06:28;;;;;;;59.53;49.42;;;24.30;51.40;;;;;;4943690;28;90112;-45
2022/08/06 08:09:03;;;;;;;59.30;49.45;;;24.30;51.30;;;;;;4936838;28;90121;-51
2022/08/06 08:11:30;;;;;;;59.33;49.72;;;24.30;51.40;;;;;;4945707;28;90340;-45
2022/08/06 08:13:58;;;;;;;59.85;49.65;;;24.30;51.30;;;;;;4934771;28;90170;-50
2022/08/06 08:16:25;;;;;;;59.03;49.45;;;24.40;51.30;;;;;;4934223;28;89828;-49
2022/08/06 08:18:50;;;;;;;59.50;49.75;;;24.40;51.30;;;;;;4934969;28;90308;-53
2022/08/06 08:21:16;;;;;;;60.78;49.72;;;24.40;51.30;;;;;;4950038;28;90599;-49
2022/08/06 08:23:45;;;;;;;59.38;49.75;;;24.40;51.20;;;;;;4929763;28;92649;-52
2022/08/06 08:26:11;;;;;;;59.47;49.47;;;24.40;51.30;;;;;;4935941;28;91050;-51
2022/08/06 08:28:36;;;;;;;61.10;49.65;;;24.40;51.20;;;;;;4940950;28;92570;-47
2022/08/06 08:31:03;;;;;;;60.35;49.58;;;24.40;51.30;;;;;;4945216;28;90489;-55
2022/08/06 08:33:29;;;;;;;59.92;49.85;;;24.40;51.30;;;;;;4946921;28;91428;-52
2022/08/06 08:35:55;;;;;;;59.90;49.95;;;24.40;51.30;;;;;;4943512;28;90048;-48
2022/08/06 08:38:21;;;;;;;59.78;49.72;;;24.40;51.20;;;;;;4948731;28;90444;-51
2022/08/06 08:40:49;;;;;;;59.95;49.63;;;24.50;51.20;;;;;;4939984;28;89598;-52
2022/08/06 08:43:22;;;;;;;60.25;49.72;;;24.50;51.20;;;;;;4932200;28;90630;-53
2022/08/06 08:45:50;;;;;;;60.15;49.63;;;24.50;51.10;;;;;;4933474;28;91577;-55
2022/08/06 08:48:22;;;;;;;60.03;49.63;;;24.50;51.10;;;;;;4933031;28;91774;-52
2022/08/06 08:50:49;;;;;;;60.35;49.63;;;24.50;51.00;;;;;;4933181;28;91150;-53
2022/08/06 08:53:25;;;;;;;59.95;49.95;;;24.50;51.00;;;;;;4940320;28;91695;-52
2022/08/06 08:55:51;;;;;;;59.78;49.70;;;24.50;51.00;;;;;;4933703;28;89888;-54
2022/08/06 08:58:18;;;;;;;60.47;49.65;;;24.50;50.90;;;;;;4942009;28;90617;-45
2022/08/06 09:00:44;;;;;;;59.83;49.88;;;24.60;50.90;;;;;;4940090;28;90392;-50
2022/08/06 09:03:11;;;;;;;59.85;49.75;;;24.60;50.80;;;;;;4943300;28;89943;-54
2022/08/06 09:05:37;;;;;;;60.38;49.97;;;24.60;50.70;;;;;;4932230;28;89304;-47
2022/08/06 09:08:03;;;;;;;59.50;49.67;;;24.60;50.60;;;;;;4944398;28;90778;-56
2022/08/06 09:10:29;;;;;;;60.15;49.88;;;24.70;50.50;;;;;;4931622;28;90761;-51
2022/08/06 09:12:56;;;;;;;60.90;49.90;;;24.70;50.40;;;;;;4942796;28;90966;-56
2022/08/06 09:15:22;;;;;;;59.78;49.67;;;24.70;50.30;;;;;;4941672;28;90451;-49
2022/08/06 09:17:49;;;;;;;60.55;49.80;;;24.70;50.30;;;;;;4942591;28;92003;-53
2022/08/06 09:20:15;;;;;;;59.75;49.85;;;24.80;50.20;;;;;;4944672;28;94637;-51
2022/08/06 09:22:44;;;;;;;60.17;49.85;;;24.80;50.10;;;;;;4936917;28;95604;-54
2022/08/06 09:25:35;;;;;;;60.42;49.83;;;24.80;50.00;;;;;;4936763;28;90835;-50
2022/08/06 09:28:01;;;;;;;59.50;49.80;;;24.80;49.90;;;;;;4943016;28;94753;-54
2022/08/06 09:30:26;;;;;;;59.65;49.58;;;24.80;49.90;;;;;;4924829;28;90072;-47
2022/08/06 09:32:55;;;;;;;60.35;49.88;;;24.80;49.80;;;;;;4937965;28;91401;-48
2022/08/06 09:35:27;;;;;;;59.97;49.75;;;24.90;49.60;;;;;;4940112;28;95156;-53
2022/08/06 09:38:05;;;;;;;60.65;49.97;;;24.80;49.70;;;;;;4943380;28;92009;-51
2022/08/06 09:40:31;;;;;;;60.00;49.88;;;24.90;49.60;;;;;;4952075;28;90820;-50
2022/08/06 09:42:57;;;;;;;59.70;49.75;;;24.80;49.40;;;;;;4940295;28;89870;-50
2022/08/06 09:45:24;;;;;;;60.22;49.85;;;24.90;49.30;;;;;;4921999;28;91997;-45
2022/08/06 09:48:04;;;;;;;61.13;50.05;;;24.90;49.40;;;;;;4944769;28;91858;-54
2022/08/06 09:50:42;;;;;;;62.30;50.22;;;24.80;49.40;;;;;;4936095;28;93843;-51
2022/08/06 09:53:08;;;;;;;63.83;50.33;;;24.90;49.50;;;;;;4942920;28;93656;-48
2022/08/06 09:55:34;;;;;;;63.33;50.33;;;24.90;49.50;;;;;;4938873;28;89259;-53
2022/08/06 09:58:00;;;;;;;62.13;50.30;;;24.90;49.60;;;;;;4942502;28;90667;-51
2022/08/06 10:00:31;;;;;;;62.25;50.60;;;25.00;49.50;;;;;;4943923;28;90512;-53
2022/08/06 10:03:02;;;;;;;66.15;50.72;;;25.00;49.40;;;;;;4943601;28;91227;-53
2022/08/06 10:05:28;;;;;;;62.08;50.42;;;25.00;49.30;;;;;;4936503;28;92659;-50
2022/08/06 10:08:14;;;;;;;65.80;50.65;;;25.10;49.40;;;;;;4941687;28;90331;-50
2022/08/06 10:10:42;;;;;;;63.05;50.35;;;25.10;49.30;;;;;;4939694;28;90467;-49
2022/08/06 10:13:26;;;;;;;63.97;50.78;;;25.10;50.10;;;;;;4943043;28;94328;-50
2022/08/06 10:15:53;;;;;;;67.18;50.72;;;25.20;49.80;;;;;;4945472;28;90020;-50
2022/08/06 10:18:41;;;;;;;62.65;50.60;;;25.20;49.70;;;;;;4938867;28;92565;-58
2022/08/06 10:21:13;;;;;;;63.85;50.83;;;25.20;49.80;;;;;;4934605;28;93859;-56
2022/08/06 10:23:40;;;;;;;65.28;50.95;;;25.30;50.10;;;;;;4933473;28;95575;-53
2022/08/06 10:26:12;;;;;;;63.97;50.90;;;25.20;50.20;;;;;;4935980;28;89678;-54
2022/08/06 10:28:43;;;;;;;64.40;50.70;;;25.20;50.20;;;;;;4938153;28;92418;-55
2022/08/06 10:31:11;;;;;;;66.32;50.75;;;25.20;50.20;;;;;;4934170;28;92400;-56
2022/08/06 10:33:51;;;;;;;66.70;50.70;;;25.20;50.30;;;;;;4936020;28;91885;-56
2022/08/06 10:36:23;;;;;;;64.35;50.63;;;25.20;50.40;;;;;;4918564;28;91761;-59
2022/08/06 10:38:50;;;;;;;65.80;51.08;;;25.20;50.40;;;;;;4930799;28;90328;-53
2022/08/06 10:41:17;;;;;;;66.22;51.05;;;25.30;50.50;;;;;;4935831;28;91144;-56
2022/08/06 10:43:44;;;;;;;66.72;51.28;;;25.20;50.50;;;;;;4929307;28;90759;-56
2022/08/06 10:46:17;;;;;;;65.13;51.03;;;25.30;50.50;;;;;;4939377;27;88733;-57
2022/08/06 10:48:46;;;;;;;65.22;50.92;;;25.20;50.50;;;;;;4946256;28;93750;-56
2022/08/06 10:51:13;;;;;;;65.20;51.13;;;25.10;50.50;;;;;;4943322;28;89811;-57
2022/08/06 10:53:45;;;;;;;63.92;51.20;;;25.30;50.20;;;;;;4936880;28;90411;-56
2022/08/06 10:56:13;;;;;;;69.95;51.25;;;25.30;50.00;;;;;;4944462;28;89665;-56
2022/08/06 10:58:40;;;;;;;66.03;51.20;;;25.10;50.10;;;;;;4936053;28;90845;-56
2022/08/06 11:01:15;;;;;;;66.43;51.35;;;25.00;50.30;;;;;;4944351;28;92432;-55
2022/08/06 11:03:47;;;;;;;64.90;51.50;;;24.90;50.40;;;;;;4933350;28;90633;-57
2022/08/06 11:06:15;;;;;;;;;;;24.90;50.20;;;;;;4939626;28;90290;-52
2022/08/06 11:09:01;;;;;;;64.18;50.88;;;24.80;50.50;;;;;;4935604;28;90698;-57
2022/08/06 11:11:32;;;;;;;66.13;51.63;;;24.80;50.00;;;;;;4941878;28;89613;-55
2022/08/06 11:14:08;;;;;;;65.13;51.20;;;24.80;49.20;;;;;;4940236;28;89663;-56
2022/08/06 11:16:35;;;;;;;66.43;51.53;;;24.80;48.50;;;;;;4945717;28;90970;-56
2022/08/06 11:19:06;;;;;;;64.00;51.03;;;24.80;48.70;;;;;;4939956;28;94851;-56
2022/08/06 11:21:39;;;;;;;62.40;51.17;;;24.80;48.90;;;;;;4937858;28;91562;-57
2022/08/06 11:24:06;;;;;;;67.38;51.63;;;24.80;48.60;;;;;;4937085;28;89648;-55
2022/08/06 11:26:38;;;;;;;65.85;51.60;;;24.80;47.90;;;;;;4933486;28;91204;-53
2022/08/06 11:29:08;;;;;;;68.47;51.65;;;24.80;47.30;;;;;;4939633;28;90120;-56
2022/08/06 11:31:35;;;;;;;66.70;51.53;;;24.80;47.30;;;;;;4928172;28;92146;-56
2022/08/06 11:34:06;;;;;;;62.78;51.15;;;24.70;48.00;;;;;;4947340;28;90356;-57
2022/08/06 11:36:48;;;;;;;;;;;24.80;47.90;;;;;;4943641;28;89326;-54
2022/08/06 11:39:15;;;;;;;66.35;50.72;;;24.80;47.70;;;;;;4940852;28;93541;-56
2022/08/06 11:42:03;;;;;;;64.72;51.35;;;24.90;47.70;;;;;;4946465;28;90380;-56
2022/08/06 11:44:37;;;;;;;62.85;50.85;;;24.90;47.70;;;;;;4940188;28;92613;-57
2022/08/06 11:47:16;;;;;;;63.65;51.13;;;24.90;47.50;;;;;;4951134;28;93922;-56
2022/08/06 11:49:43;;;;;;;63.28;51.03;;;25.00;47.40;;;;;;4945521;28;91867;-56
2022/08/06 11:52:09;;;;;;;63.35;50.92;;;25.00;47.50;;;;;;4943940;28;96402;-56
2022/08/06 11:54:44;;;;;;;64.60;51.20;;;25.00;47.80;;;;;;4945700;28;96357;-56
2022/08/06 11:57:09;;;;;;;63.67;51.13;;;24.90;47.10;;;;;;4936846;28;90494;-56
2022/08/06 11:59:37;;;;;;;64.47;51.35;;;24.90;46.50;;;;;;4931421;28;94407;-56
2022/08/06 12:02:08;;;;;;;62.90;51.25;;;24.80;48.00;;;;;;4930795;28;95151;-56
2022/08/06 12:04:38;;;;;;;63.47;51.17;;;24.80;47.90;;;;;;4941932;28;90874;-56
2022/08/06 12:07:19;;;;;;;63.03;51.15;;;24.90;46.40;;;;;;4931894;28;90235;-57
2022/08/06 12:09:46;;;;;;;63.17;51.25;;;24.90;47.60;;;;;;4926846;28;90808;-50
2022/08/06 12:12:24;;;;;;;62.38;51.05;;;24.90;46.30;;;;;;4941366;28;90807;-56
2022/08/06 12:14:51;;;;;;;63.10;51.25;;;24.90;47.40;;;;;;4939539;28;91328;-56
2022/08/06 12:17:24;;;;;;;63.58;50.72;;;24.80;47.50;;;;;;4942805;28;90720;-55
2022/08/06 12:19:52;;;;;;;65.45;51.45;;;24.90;47.40;;;;;;4933147;28;91377;-56
2022/08/06 12:22:21;;;;;;;62.40;51.22;;;25.00;47.90;;;;;;4934316;28;91506;-56
2022/08/06 12:24:50;;;;;;;62.95;51.08;;;25.10;47.10;;;;;;4937232;28;90710;-55
2022/08/06 12:27:16;;;;;;;62.35;50.92;;;25.00;47.00;;;;;;4941132;28;89051;-54
2022/08/06 12:29:43;;;;;;;67.60;51.15;;;25.10;47.10;;;;;;4941192;28;93272;-55
2022/08/06 12:32:29;;;;;;;64.47;51.40;;;25.20;47.00;;;;;;4940694;28;91584;-56
2022/08/06 12:34:57;;;;;;;64.30;51.13;;;25.20;46.80;;;;;;4934313;28;91409;-56
2022/08/06 12:37:34;;;;;;;62.00;51.20;;;25.20;47.10;;;;;;4927815;28;94798;-55
2022/08/06 12:42:45;;;;;;;64.50;51.17;;;25.20;47.50;;;;;;4941309;28;90323;-55
2022/08/06 12:45:11;;;;;;;64.70;51.20;;;25.30;47.40;;;;;;4939330;28;91449;-53
2022/08/06 12:47:36;;;;;;;65.47;51.45;;;25.40;47.30;;;;;;4928854;28;91826;-56
2022/08/06 12:50:19;;;;;;;62.50;51.17;;;25.40;47.20;;;;;;4939142;28;90904;-56